Time;durP1;ratioP1;P1;durP2;ratioP2;P2;SDS_P1;SDS_P2;PMS_P1;PMS_P2;Temp;Humidity;BMP_temperature;BMP_pressure;BME280_temperature;BME280_humidity;BME280_pressure;Samples;Min_cycle;Max_cycle;Signal;HPM_P1;HPM_P2
2023/08/09 00:01:42;;;;;;;2.90;1.90;;;;;;;14.31;68.49;100140.50;102520;278;94100;-55
2023/08/09 00:04:21;;;;;;;3.40;2.20;;;;;;;14.30;68.67;100137.97;102510;278;96670;-55
2023/08/09 00:06:58;;;;;;;4.00;2.50;;;;;;;14.29;68.90;100137.98;102591;278;119422;-58
2023/08/09 00:09:37;;;;;;;4.40;2.90;;;;;;;14.24;69.05;100136.75;102567;278;105491;-59
2023/08/09 00:12:14;;;;;;;3.40;2.20;;;;;;;14.25;69.21;100135.66;102544;279;113773;-55
2023/08/09 00:14:52;;;;;;;4.10;2.40;;;;;;;14.26;69.24;100140.38;102496;279;96934;-54
2023/08/09 00:17:33;;;;;;;4.10;1.90;;;;;;;14.24;69.38;100144.44;102532;278;97651;-56
2023/08/09 00:20:13;;;;;;;3.80;2.40;;;;;;;14.24;69.55;100149.63;102489;278;120816;-56
2023/08/09 00:22:49;;;;;;;3.40;2.30;;;;;;;14.26;69.58;100151.37;102583;279;105355;-56
2023/08/09 00:25:24;;;;;;;3.20;2.30;;;;;;;14.26;69.70;100153.68;102521;278;112071;-55
2023/08/09 00:27:59;;;;;;;3.50;2.10;;;;;;;14.24;69.84;100154.85;102621;278;93083;-58
2023/08/09 00:30:42;;;;;;;3.20;2.50;;;;;;;14.20;69.95;100153.45;102592;277;97978;-58
2023/08/09 00:33:20;;;;;;;4.70;2.50;;;;;;;14.17;70.02;100146.79;102514;277;119336;-56
2023/08/09 00:35:58;;;;;;;3.60;2.20;;;;;;;14.14;70.10;100139.04;102550;278;105105;-58
2023/08/09 00:38:33;;;;;;;2.90;2.10;;;;;;;14.09;70.48;100138.11;102649;278;114348;-58
2023/08/09 00:41:13;;;;;;;2.50;1.90;;;;;;;14.04;70.30;100146.24;102619;279;96618;-54
2023/08/09 00:43:51;;;;;;;3.50;2.10;;;;;;;14.00;70.37;100146.97;102531;278;96604;-53
2023/08/09 00:46:28;;;;;;;2.90;2.10;;;;;;;13.98;70.58;100154.25;102540;279;121278;-54
2023/08/09 00:49:05;;;;;;;4.20;2.40;;;;;;;13.97;70.88;100157.36;102533;278;104659;-54
2023/08/09 00:51:46;;;;;;;3.30;2.30;;;;;;;13.97;70.94;100155.19;102550;279;114869;-55
2023/08/09 00:54:24;;;;;;;3.00;2.00;;;;;;;13.97;71.18;100158.23;102554;278;95085;-55
2023/08/09 00:57:05;;;;;;;4.60;2.40;;;;;;;14.00;71.21;100159.35;102544;279;97443;-55
2023/08/09 00:59:42;;;;;;;3.20;2.40;;;;;;;13.98;71.32;100162.28;102543;279;120766;-53
2023/08/09 01:02:23;;;;;;;3.20;2.40;;;;;;;13.96;71.52;100160.38;102514;279;105751;-54
2023/08/09 01:05:04;;;;;;;2.70;2.20;;;;;;;13.96;71.47;100162.58;102500;278;113326;-56
2023/08/09 01:07:53;;;;;;;5.20;2.30;;;;;;;13.92;71.77;100159.13;102551;279;97454;-54
2023/08/09 01:10:35;;;;;;;4.50;2.30;;;;;;;13.90;71.99;100160.19;102536;278;97762;-54
2023/08/09 01:13:19;;;;;;;4.00;2.60;;;;;;;13.90;71.95;100163.33;102506;279;120276;-56
2023/08/09 01:15:55;;;;;;;3.20;2.10;;;;;;;13.88;72.02;100160.66;102577;279;105561;-54
2023/08/09 01:18:31;;;;;;;3.40;2.30;;;;;;;13.89;72.16;100166.73;102506;279;114633;-53
2023/08/09 01:21:07;;;;;;;2.90;2.20;;;;;;;13.87;72.14;100163.94;102553;279;94788;-54
2023/08/09 01:23:50;;;;;;;4.10;2.50;;;;;;;13.82;72.31;100165.29;102517;278;96499;-53
2023/08/09 01:26:25;;;;;;;3.70;2.10;;;;;;;13.80;72.46;100162.75;102512;279;120577;-57
2023/08/09 01:29:07;;;;;;;4.60;2.30;;;;;;;13.82;72.58;100160.77;102523;279;104661;-57
2023/08/09 01:31:42;;;;;;;7.10;2.50;;;;;;;13.87;72.63;100152.77;102509;279;114409;-54
2023/08/09 01:34:17;;;;;;;5.30;2.30;;;;;;;13.90;72.79;100150.36;102508;278;96522;-54
2023/08/09 01:36:57;;;;;;;4.00;2.20;;;;;;;13.95;72.67;100145.17;102561;279;97268;-58
2023/08/09 01:39:41;;;;;;;4.10;2.70;;;;;;;13.99;72.91;100148.41;102521;279;120119;-58
2023/08/09 01:42:19;;;;;;;3.30;2.10;;;;;;;14.00;72.88;100150.99;102585;279;106077;-56
2023/08/09 01:45:02;;;;;;;3.30;2.10;;;;;;;13.96;72.85;100156.89;102510;278;114450;-56
2023/08/09 01:47:42;;;;;;;4.00;3.00;;;;;;;13.97;72.89;100155.52;102522;279;96361;-53
2023/08/09 01:50:27;;;;;;;3.00;2.10;;;;;;;13.94;73.02;100160.50;102559;279;97503;-53
2023/08/09 01:53:02;;;;;;;3.70;2.30;;;;;;;13.93;73.02;100164.48;102607;279;121587;-58
2023/08/09 01:55:40;;;;;;;3.00;2.10;;;;;;;13.90;73.10;100165.04;102627;278;105186;-57
2023/08/09 01:58:18;;;;;;;3.70;2.40;;;;;;;13.88;73.08;100167.94;102566;279;113238;-56
2023/08/09 02:00:59;;;;;;;3.70;2.00;;;;;;;13.80;73.25;100172.27;102535;279;93497;-55
2023/08/09 02:03:43;;;;;;;3.80;2.60;;;;;;;13.76;73.23;100170.86;102660;278;96501;-58
2023/08/09 02:06:21;;;;;;;3.80;2.20;;;;;;;13.69;73.28;100175.32;102571;279;120309;-53
2023/08/09 02:08:58;;;;;;;2.90;2.40;;;;;;;13.65;73.37;100178.52;102519;279;105585;-53
2023/08/09 02:11:37;;;;;;;3.30;2.60;;;;;;;13.60;73.42;100177.66;102452;279;114030;-54
2023/08/09 02:14:14;;;;;;;3.90;2.30;;;;;;;13.53;73.68;100177.51;102509;279;96589;-55
2023/08/09 02:16:52;;;;;;;6.70;2.50;;;;;;;13.43;73.95;100176.95;102518;279;96452;-55
2023/08/09 02:19:35;;;;;;;5.50;2.80;;;;;;;13.36;73.90;100184.27;102501;278;120597;-53
2023/08/09 02:22:17;;;;;;;4.00;2.40;;;;;;;13.31;74.19;100187.91;102591;278;106217;-57
2023/08/09 02:24:57;;;;;;;3.30;2.20;;;;;;;13.25;74.48;100182.41;102630;278;114585;-58
2023/08/09 02:27:33;;;;;;;3.30;2.00;;;;;;;13.21;74.70;100182.80;102538;279;94816;-56
2023/08/09 02:30:09;;;;;;;8.70;3.90;;;;;;;13.22;74.83;100181.89;102574;278;96539;-56
2023/08/09 02:32:51;;;;;;;3.40;2.40;;;;;;;13.19;75.04;100178.72;102542;278;120469;-56
2023/08/09 02:35:47;;;;;;;4.70;2.50;;;;;;;13.15;75.07;100178.23;102517;278;103213;-55
2023/08/09 02:38:26;;;;;;;4.50;2.30;;;;;;;13.11;75.37;100176.61;102456;279;114432;-56
2023/08/09 02:41:01;;;;;;;5.30;2.20;;;;;;;13.09;75.62;100183.04;102504;279;95326;-58
2023/08/09 02:43:39;;;;;;;3.60;2.40;;;;;;;13.10;75.63;100181.08;102600;279;97045;-58
2023/08/09 02:46:26;;;;;;;4.60;2.00;;;;;;;13.08;75.91;100177.36;102597;279;120602;-54
2023/08/09 02:49:06;;;;;;;4.20;2.50;;;;;;;13.06;76.17;100178.85;102447;279;105568;-53
2023/08/09 02:51:42;;;;;;;5.20;2.20;;;;;;;13.10;76.20;100175.65;102493;279;113953;-56
2023/08/09 02:54:19;;;;;;;3.40;2.20;;;;;;;13.09;76.27;100175.91;102486;279;97004;-56
2023/08/09 02:56:55;;;;;;;3.00;2.30;;;;;;;13.11;76.43;100178.24;102534;279;97258;-54
2023/08/09 02:59:35;;;;;;;3.30;2.20;;;;;;;13.14;76.48;100182.45;102517;279;120367;-54
2023/08/09 03:02:10;;;;;;;3.60;2.10;;;;;;;13.12;76.71;100176.06;102478;279;106343;-55
2023/08/09 03:04:46;;;;;;;3.50;2.20;;;;;;;13.06;76.88;100181.06;102502;279;114379;-55
2023/08/09 03:07:24;;;;;;;4.50;2.90;;;;;;;13.03;76.79;100181.98;102574;279;97363;-57
2023/08/09 03:10:03;;;;;;;4.50;2.60;;;;;;;12.98;76.77;100187.06;102633;279;97711;-56
2023/08/09 03:12:39;;;;;;;3.40;2.40;;;;;;;12.94;77.14;100182.48;102523;279;118681;-56
2023/08/09 03:15:21;;;;;;;3.20;2.40;;;;;;;12.93;77.33;100184.29;102134;268;106610;-54
2023/08/09 03:18:01;;;;;;;3.50;2.30;;;;;;;12.92;77.29;100191.41;102477;279;114794;-56
2023/08/09 03:20:37;;;;;;;3.10;2.30;;;;;;;12.90;77.32;100194.08;102486;279;96588;-56
2023/08/09 03:23:15;;;;;;;3.30;2.10;;;;;;;12.89;77.53;100197.13;102484;279;96795;-56
2023/08/09 03:25:52;;;;;;;3.40;2.40;;;;;;;12.85;77.66;100198.21;102485;279;120771;-57
2023/08/09 03:28:29;;;;;;;2.70;2.30;;;;;;;12.86;78.04;100201.76;102460;279;104574;-53
2023/08/09 03:31:03;;;;;;;3.00;2.10;;;;;;;12.86;78.10;100203.17;102478;279;114098;-56
2023/08/09 03:33:47;;;;;;;3.70;2.50;;;;;;;12.91;78.13;100206.71;102449;279;97259;-56
2023/08/09 03:36:22;;;;;;;4.10;2.50;;;;;;;12.94;78.16;100215.10;102518;266;96768;-54
2023/08/09 03:38:59;;;;;;;3.40;2.60;;;;;;;12.93;78.26;100216.42;102516;278;121629;-54
2023/08/09 03:41:32;;;;;;;;;;;;;;;12.91;78.44;100215.77;102596;278;105678;-58
2023/08/09 03:44:08;;;;;;;3.30;2.40;;;;;;;12.94;78.47;100214.85;102651;278;112435;-58
2023/08/09 03:46:43;;;;;;;3.20;2.20;;;;;;;12.97;78.46;100214.48;102632;278;95473;-54
2023/08/09 03:49:19;;;;;;;2.50;2.10;;;;;;;12.98;78.52;100215.77;102405;279;100097;-53
2023/08/09 03:51:56;;;;;;;3.80;2.50;;;;;;;13.02;78.70;100211.89;102535;278;120601;-54
2023/08/09 03:54:36;;;;;;;3.00;2.20;;;;;;;13.08;78.69;100205.77;102532;278;105347;-53
2023/08/09 03:57:11;;;;;;;3.50;2.30;;;;;;;13.13;78.79;100210.31;102558;278;114646;-56
2023/08/09 03:59:54;;;;;;;5.10;2.10;;;;;;;13.34;78.77;100208.45;102485;278;96562;-56
2023/08/09 04:02:31;;;;;;;3.60;2.20;;;;;;;13.94;79.06;100205.91;102597;278;97692;-58
2023/08/09 04:05:08;;;;;;;3.30;2.30;;;;;;;14.27;78.67;100211.52;102622;278;119779;-56
2023/08/09 04:07:47;;;;;;;3.00;2.00;;;;;;;14.38;78.34;100218.38;102680;278;106041;-58
2023/08/09 04:10:26;;;;;;;3.00;2.10;;;;;;;14.40;78.25;100219.04;102650;278;115356;-58
2023/08/09 04:13:01;;;;;;;4.40;2.20;;;;;;;14.37;77.89;100224.03;102605;278;94011;-58
2023/08/09 04:15:37;;;;;;;4.00;2.40;;;;;;;14.33;77.63;100221.23;102624;279;98452;-58
2023/08/09 04:18:15;;;;;;;3.30;2.30;;;;;;;14.35;77.59;100225.05;102607;278;120365;-58
2023/08/09 04:20:56;;;;;;;3.20;2.00;;;;;;;14.36;77.53;100227.09;102606;278;104707;-54
2023/08/09 04:23:31;;;;;;;6.00;2.20;;;;;;;14.41;77.50;100229.70;102490;278;114259;-53
2023/08/09 04:26:11;;;;;;;2.40;1.90;;;;;;;14.43;77.34;100230.61;102530;278;95796;-57
2023/08/09 04:28:45;;;;;;;3.30;2.30;;;;;;;14.47;77.07;100229.41;102600;279;97259;-59
2023/08/09 04:31:21;;;;;;;2.80;1.90;;;;;;;14.43;77.07;100234.00;102630;279;120848;-54
2023/08/09 04:33:59;;;;;;;3.50;2.00;;;;;;;14.34;77.18;100229.40;102565;278;104437;-54
2023/08/09 04:36:34;;;;;;;3.60;2.00;;;;;;;14.27;77.09;100231.33;102522;278;114027;-54
2023/08/09 04:39:14;;;;;;;2.50;2.00;;;;;;;14.23;77.19;100226.77;102528;279;95632;-54
2023/08/09 04:41:53;;;;;;;2.90;2.10;;;;;;;14.30;77.26;100228.41;102559;278;97449;-55
2023/08/09 04:44:31;;;;;;;3.60;2.30;;;;;;;14.46;77.35;100235.27;102478;279;119447;-55
2023/08/09 04:47:05;;;;;;;3.90;2.20;;;;;;;14.61;77.64;100236.40;102598;278;103371;-53
2023/08/09 04:49:47;;;;;;;4.20;2.10;;;;;;;14.80;77.37;100241.78;102497;279;114473;-54
2023/08/09 04:52:24;;;;;;;3.90;2.20;;;;;;;15.37;77.35;100243.11;102511;279;94516;-55
2023/08/09 04:55:03;;;;;;;3.90;2.40;;;;;;;17.07;76.79;100242.11;102497;278;97786;-56
2023/08/09 04:57:42;;;;;;;3.00;2.10;;;;;;;18.91;75.07;100234.52;102567;279;120835;-59
2023/08/09 05:00:18;;;;;;;3.30;2.10;;;;;;;20.89;72.17;100237.41;102563;278;105112;-58
2023/08/09 05:02:56;;;;;;;4.10;1.90;;;;;;;22.55;69.21;100236.54;102536;279;113300;-56
2023/08/09 05:05:35;;;;;;;4.90;2.20;;;;;;;23.79;66.21;100236.96;102488;279;95421;-56
2023/08/09 05:08:17;;;;;;;3.00;1.70;;;;;;;24.63;63.53;100237.48;102546;278;97282;-54
2023/08/09 05:10:58;;;;;;;2.60;1.80;;;;;;;25.02;61.12;100229.55;102538;278;121935;-56
2023/08/09 05:13:36;;;;;;;3.10;1.90;;;;;;;24.55;59.21;100223.16;102491;278;104636;-56
2023/08/09 05:16:14;;;;;;;2.50;1.70;;;;;;;24.66;58.31;100225.91;102550;278;114414;-54
2023/08/09 05:18:50;;;;;;;;;;;;;;;24.56;56.93;100226.41;102547;278;95576;-54
2023/08/09 05:21:26;;;;;;;3.30;2.00;;;;;;;23.33;56.94;100231.89;102560;278;97071;-56
2023/08/09 05:24:06;;;;;;;2.30;1.60;;;;;;;22.30;57.12;100228.27;102510;278;120538;-56
2023/08/09 05:26:42;;;;;;;4.10;1.90;;;;;;;21.49;57.80;100232.11;102512;278;105102;-55
2023/08/09 05:29:19;;;;;;;2.70;2.10;;;;;;;20.88;58.49;100239.51;102513;279;114345;-56
2023/08/09 05:32:04;;;;;;;3.30;2.20;;;;;;;20.59;59.08;100237.46;102592;278;92472;-57
2023/08/09 05:34:42;;;;;;;2.90;1.80;;;;;;;21.07;59.36;100231.38;102526;278;97879;-57
2023/08/09 05:37:19;;;;;;;4.50;2.10;;;;;;;23.14;58.25;100222.98;102513;278;120796;-54
2023/08/09 05:39:59;;;;;;;5.20;2.00;;;;;;;24.96;56.31;100225.91;102504;279;104496;-54
2023/08/09 05:42:41;;;;;;;2.20;1.50;;;;;;;26.35;54.39;100224.07;102548;278;113695;-54
2023/08/09 05:45:19;;;;;;;2.70;1.60;;;;;;;27.56;52.24;100221.91;102494;279;94047;-54
2023/08/09 05:48:04;;;;;;;2.10;1.50;;;;;;;28.48;50.51;100217.63;102538;279;97381;-56
2023/08/09 05:50:38;;;;;;;2.90;1.40;;;;;;;29.27;49.06;100226.05;102516;271;119978;-57
2023/08/09 05:53:19;;;;;;;2.30;1.30;;;;;;;29.91;47.10;100227.50;102537;279;103686;-54
2023/08/09 05:55:57;;;;;;;2.40;1.50;;;;;;;30.24;45.69;100231.23;102517;278;113778;-56
2023/08/09 05:58:35;;;;;;;3.30;1.80;;;;;;;30.73;44.42;100228.19;102508;278;94997;-56
2023/08/09 06:01:16;;;;;;;2.90;1.50;;;;;;;31.26;43.45;100220.86;102588;278;97755;-59
2023/08/09 06:03:55;;;;;;;2.20;1.50;;;;;;;31.81;42.45;100227.52;102518;278;121572;-59
2023/08/09 06:06:34;;;;;;;2.40;1.40;;;;;;;32.16;40.85;100230.31;102583;278;104777;-56
2023/08/09 06:09:17;;;;;;;1.70;1.30;;;;;;;32.44;39.69;100235.45;102534;278;115019;-57
2023/08/09 06:11:57;;;;;;;1.80;1.30;;;;;;;32.66;38.87;100234.20;102529;278;93822;-56
2023/08/09 06:14:39;;;;;;;2.70;1.30;;;;;;;32.92;38.44;100232.04;102529;279;97095;-56
2023/08/09 06:17:19;;;;;;;2.00;1.30;;;;;;;33.27;37.60;100239.19;102576;279;120977;-59
2023/08/09 06:19:53;;;;;;;2.30;1.20;;;;;;;33.41;37.04;100239.48;102559;279;105832;-59
2023/08/09 06:22:29;;;;;;;1.90;1.20;;;;;;;33.62;36.27;100240.47;102577;279;114671;-58
2023/08/09 06:25:08;;;;;;;1.40;1.10;;;;;;;33.99;35.62;100244.80;102617;279;93628;-60
2023/08/09 06:27:47;;;;;;;2.90;1.40;;;;;;;34.14;34.96;100235.64;102565;279;97201;-68
2023/08/09 06:30:26;;;;;;;2.20;1.50;;;;;;;34.29;34.88;100237.58;102524;278;121216;-56
2023/08/09 06:33:05;;;;;;;3.30;1.70;;;;;;;34.79;33.94;100234.61;102589;279;105737;-56
2023/08/09 06:35:49;;;;;;;2.70;1.40;;;;;;;35.12;33.70;100232.73;102512;275;113961;-57
2023/08/09 06:38:32;;;;;;;3.50;1.30;;;;;;;35.61;32.99;100231.81;102534;279;93769;-58
2023/08/09 06:41:09;;;;;;;;;;;;;;;35.41;32.24;100234.21;102572;278;97547;-55
2023/08/09 06:43:48;;;;;;;1.90;1.30;;;;;;;35.35;31.52;100231.48;102528;278;121067;-55
2023/08/09 06:46:25;;;;;;;7.30;1.40;;;;;;;35.39;30.92;100235.20;102576;278;106159;-57
2023/08/09 06:48:59;;;;;;;3.60;1.20;;;;;;;35.48;30.96;100232.73;102556;278;113969;-54
2023/08/09 06:51:34;;;;;;;1.40;1.10;;;;;;;35.05;30.73;100234.81;102551;278;94587;-56
2023/08/09 06:54:09;;;;;;;1.40;1.00;;;;;;;33.57;30.97;100237.11;102545;278;96800;-56
2023/08/09 06:56:55;;;;;;;3.90;1.40;;;;;;;31.39;31.96;100248.10;102532;279;118560;-53
2023/08/09 06:59:34;;;;;;;2.00;1.20;;;;;;;29.68;33.63;100258.45;102548;279;103653;-53
2023/08/09 07:02:10;;;;;;;1.40;1.00;;;;;;;28.58;34.63;100257.54;102530;279;114757;-54
2023/08/09 07:04:44;;;;;;;2.40;1.40;;;;;;;28.26;35.34;100253.52;102507;279;94119;-54
2023/08/09 07:07:26;;;;;;;2.10;1.30;;;;;;;27.99;35.59;100249.88;102614;279;98172;-58
2023/08/09 07:10:02;;;;;;;1.30;1.00;;;;;;;27.55;36.57;100247.77;102694;278;119666;-58
2023/08/09 07:12:41;;;;;;;2.00;1.20;;;;;;;28.15;36.80;100241.06;102612;279;106603;-58
2023/08/09 07:15:22;;;;;;;1.60;1.20;;;;;;;28.90;36.92;100245.66;102574;279;116467;-58
2023/08/09 07:18:02;;;;;;;2.60;1.50;;;;;;;29.08;36.51;100245.86;102546;279;93117;-58
2023/08/09 07:20:52;;;;;;;1.60;1.30;;;;;;;29.72;36.61;100248.98;102586;278;96357;-59
2023/08/09 07:23:31;;;;;;;1.80;1.10;;;;;;;31.44;35.38;100245.92;102510;278;120094;-56
2023/08/09 07:26:21;;;;;;;1.80;1.20;;;;;;;32.40;33.62;100242.79;102519;278;105201;-54
2023/08/09 07:29:00;;;;;;;1.60;1.10;;;;;;;33.38;33.10;100244.79;102514;278;114443;-54
2023/08/09 07:31:40;;;;;;;2.50;1.10;;;;;;;33.81;31.99;100255.39;102523;278;94511;-55
2023/08/09 07:34:19;;;;;;;2.60;1.40;;;;;;;32.83;32.07;100254.29;102557;278;98092;-55
2023/08/09 07:36:53;;;;;;;1.90;1.10;;;;;;;32.47;31.96;100258.84;102514;278;120737;-54
2023/08/09 07:39:34;;;;;;;1.80;1.10;;;;;;;32.61;32.42;100256.14;102506;278;105025;-54
2023/08/09 07:42:12;;;;;;;2.90;1.40;;;;;;;33.64;32.17;100258.67;102516;279;114303;-54
2023/08/09 07:44:48;;;;;;;3.40;1.60;;;;;;;34.52;31.02;100257.31;102491;278;95464;-54
2023/08/09 07:47:27;;;;;;;1.70;1.30;;;;;;;34.87;30.31;100262.05;102536;278;97654;-54
2023/08/09 07:50:03;;;;;;;2.70;1.50;;;;;;;34.42;29.96;100267.89;102530;278;121066;-54
2023/08/09 07:52:39;;;;;;;1.80;1.00;;;;;;;32.69;29.99;100260.52;102578;278;105413;-55
2023/08/09 07:55:18;;;;;;;2.80;1.20;;;;;;;31.24;31.37;100260.23;102522;279;114344;-55
2023/08/09 07:57:54;;;;;;;1.70;1.10;;;;;;;30.85;32.51;100261.44;102568;278;94358;-57
2023/08/09 08:00:33;;;;;;;2.00;1.20;;;;;;;30.69;32.70;100261.60;102546;278;97926;-59
2023/08/09 08:03:13;;;;;;;2.30;1.20;;;;;;;31.83;32.82;100260.63;102657;279;119570;-58
2023/08/09 08:05:51;;;;;;;2.50;1.30;;;;;;;33.03;32.00;100249.35;102605;278;105719;-58
2023/08/09 08:08:28;;;;;;;3.20;1.30;;;;;;;33.85;31.54;100254.65;102536;278;114968;-54
2023/08/09 08:11:08;;;;;;;1.60;1.20;;;;;;;34.59;30.63;100255.33;102561;278;95089;-56
2023/08/09 08:13:44;;;;;;;2.30;1.30;;;;;;;35.06;30.07;100255.49;102555;278;95893;-56
2023/08/09 08:16:22;;;;;;;1.30;1.00;;;;;;;34.03;29.41;100258.67;102552;278;120338;-53
2023/08/09 08:19:02;;;;;;;2.20;1.10;;;;;;;33.25;30.42;100263.41;102491;267;105759;-53
2023/08/09 08:21:40;;;;;;;1.60;1.10;;;;;;;32.32;29.81;100262.77;102587;278;115366;-57
2023/08/09 08:24:18;;;;;;;1.80;1.20;;;;;;;30.94;31.01;100268.17;102585;278;94785;-59
2023/08/09 08:26:55;;;;;;;2.40;1.10;;;;;;;29.94;32.24;100272.81;102655;278;97021;-59
2023/08/09 08:29:29;;;;;;;1.80;1.30;;;;;;;30.44;32.26;100268.24;102570;279;121074;-57
2023/08/09 08:32:08;;;;;;;1.60;1.20;;;;;;;29.38;32.31;100272.13;102618;279;106012;-58
2023/08/09 08:34:43;;;;;;;2.20;1.30;;;;;;;29.23;33.68;100271.29;102543;278;113332;-58
2023/08/09 08:37:21;;;;;;;3.60;1.20;;;;;;;30.30;33.13;100275.94;102554;279;93824;-54
2023/08/09 08:39:58;;;;;;;1.70;1.10;;;;;;;30.33;33.21;100277.39;102507;278;97249;-54
2023/08/09 08:42:36;;;;;;;2.00;1.20;;;;;;;31.25;32.72;100274.27;102627;278;120706;-58
2023/08/09 08:45:15;;;;;;;2.30;1.20;;;;;;;31.78;32.27;100270.13;102633;278;106094;-58
2023/08/09 08:48:00;;;;;;;1.80;1.10;;;;;;;31.95;31.70;100270.77;102564;278;114532;-56
2023/08/09 08:50:43;;;;;;;2.40;1.10;;;;;;;31.70;31.88;100271.92;102523;278;93981;-56
2023/08/09 08:53:24;;;;;;;1.60;1.20;;;;;;;30.65;31.60;100272.88;102569;278;97855;-58
2023/08/09 08:56:04;;;;;;;1.90;1.20;;;;;;;29.26;32.30;100278.54;102557;278;120294;-57
2023/08/09 08:58:39;;;;;;;2.00;1.30;;;;;;;27.96;32.83;100283.30;102535;279;105909;-56
2023/08/09 09:01:18;;;;;;;1.90;1.30;;;;;;;27.13;34.34;100283.66;102569;278;113218;-56
2023/08/09 09:04:00;;;;;;;2.50;1.30;;;;;;;27.27;35.70;100284.23;102519;279;95100;-56
2023/08/09 09:06:38;;;;;;;3.40;1.40;;;;;;;28.17;36.25;100282.57;102543;278;95926;-55
2023/08/09 09:09:20;;;;;;;3.60;1.50;;;;;;;28.12;35.78;100282.52;102506;267;120880;-56
2023/08/09 09:12:01;;;;;;;2.30;1.40;;;;;;;27.93;35.60;100281.25;102516;278;105581;-56
2023/08/09 09:14:38;;;;;;;2.70;1.40;;;;;;;27.77;35.95;100283.89;102509;279;114435;-57
2023/08/09 09:17:16;;;;;;;3.20;1.50;;;;;;;27.88;36.03;100278.18;102572;278;94522;-54
2023/08/09 09:19:56;;;;;;;1.90;1.40;;;;;;;28.34;36.38;100269.89;102539;278;98121;-53
2023/08/09 09:22:34;;;;;;;2.00;1.60;;;;;;;28.88;36.33;100267.89;102550;278;120500;-55
2023/08/09 09:25:19;;;;;;;2.90;1.50;;;;;;;29.13;35.57;100275.54;102540;279;105282;-55
2023/08/09 09:28:00;;;;;;;2.60;1.30;;;;;;;29.25;35.74;100273.77;102531;279;115150;-54
2023/08/09 09:30:39;;;;;;;3.40;1.70;;;;;;;29.25;35.45;100276.44;102506;278;94344;-54
2023/08/09 09:33:20;;;;;;;3.40;1.60;;;;;;;28.84;34.97;100276.38;102541;279;97744;-55
2023/08/09 09:35:59;;;;;;;2.60;1.60;;;;;;;28.19;35.56;100278.48;102540;279;119116;-56
2023/08/09 09:38:34;;;;;;;1.60;1.30;;;;;;;27.83;36.20;100284.10;102513;279;105059;-55
2023/08/09 09:41:12;;;;;;;3.00;1.50;;;;;;;27.61;36.74;100287.02;102535;279;112859;-55
2023/08/09 09:43:50;;;;;;;2.20;1.60;;;;;;;27.33;36.98;100280.76;102537;279;93843;-56
2023/08/09 09:46:35;;;;;;;3.20;1.50;;;;;;;26.92;37.38;100280.89;102537;278;97222;-57
2023/08/09 09:49:17;;;;;;;3.50;1.40;;;;;;;26.64;37.69;100279.77;102536;278;122528;-58
2023/08/09 09:52:01;;;;;;;3.10;1.50;;;;;;;26.30;38.15;100278.73;102560;275;104910;-56
2023/08/09 09:54:39;;;;;;;2.50;1.60;;;;;;;26.38;38.44;100274.07;102535;279;114916;-57
2023/08/09 09:57:21;;;;;;;3.20;1.50;;;;;;;26.33;38.17;100273.30;102589;279;94642;-57
2023/08/09 10:00:09;;;;;;;6.00;1.50;;;;;;;26.34;38.67;100272.25;102604;278;97232;-57
2023/08/09 10:02:50;;;;;;;3.10;1.40;;;;;;;26.36;39.15;100269.51;102592;279;120874;-57
2023/08/09 10:05:35;;;;;;;4.00;1.50;;;;;;;26.41;38.80;100268.99;102561;278;105516;-56
2023/08/09 10:08:14;;;;;;;1.90;1.30;;;;;;;26.36;38.27;100266.29;102552;279;113374;-54
2023/08/09 10:10:54;;;;;;;2.20;1.40;;;;;;;26.07;38.06;100270.73;102534;279;94795;-54
2023/08/09 10:13:34;;;;;;;3.20;1.50;;;;;;;25.86;38.60;100272.55;102549;279;98222;-56
2023/08/09 10:16:13;;;;;;;3.70;1.50;;;;;;;25.78;39.11;100268.60;102514;279;120756;-58
2023/08/09 10:18:56;;;;;;;2.80;1.10;;;;;;;25.99;39.69;100267.38;102491;280;106102;-58
2023/08/09 10:21:34;;;;;;;2.30;1.60;;;;;;;25.86;39.51;100263.65;102611;278;115070;-56
2023/08/09 10:24:18;;;;;;;4.10;1.60;;;;;;;25.62;39.48;100260.63;102505;279;94461;-57
2023/08/09 10:27:01;;;;;;;2.70;1.30;;;;;;;25.31;39.87;100261.44;102541;279;96514;-54
2023/08/09 10:29:41;;;;;;;2.90;1.70;;;;;;;25.43;40.50;100260.40;102530;279;119294;-53
2023/08/09 10:32:39;;;;;;;1.60;1.00;;;;;;;25.76;40.10;100252.79;102532;279;105771;-56
2023/08/09 10:35:44;;;;;;;2.90;1.30;;;;;;;26.18;39.98;100249.17;102492;279;114480;-56
2023/08/09 10:38:41;;;;;;;2.40;1.50;;;;;;;26.49;39.64;100249.99;102517;279;94227;-55
2023/08/09 10:41:15;;;;;;;2.50;1.40;;;;;;;26.60;39.20;100245.17;102551;279;98363;-55
2023/08/09 10:44:01;;;;;;;3.90;1.30;;;;;;;26.43;38.72;100244.20;102519;279;121441;-56
2023/08/09 10:46:46;;;;;;;2.80;1.40;;;;;;;26.26;38.94;100246.69;102537;279;106678;-54
2023/08/09 10:49:45;;;;;;;3.40;1.40;;;;;;;26.01;38.79;100251.08;102486;279;115299;-52
2023/08/09 10:52:29;;;;;;;2.40;1.30;;;;;;;25.61;38.89;100250.83;102531;279;93900;-53
2023/08/09 10:55:33;;;;;;;1.90;1.30;;;;;;;25.68;38.88;100242.98;102531;279;98213;-55
2023/08/09 10:58:20;;;;;;;3.10;1.40;;;;;;;25.99;39.24;100241.84;102554;279;120577;-55
2023/08/09 11:01:01;;;;;;;3.40;1.40;;;;;;;26.27;39.46;100239.70;102596;279;106165;-55
2023/08/09 11:03:36;;;;;;;3.40;1.30;;;;;;;26.44;38.93;100238.38;102492;279;114797;-56
2023/08/09 11:06:15;;;;;;;2.60;1.50;;;;;;;26.40;38.79;100239.16;102515;279;93850;-56
2023/08/09 11:08:55;;;;;;;2.20;1.30;;;;;;;26.19;38.21;100240.04;102502;279;96709;-56
2023/08/09 11:11:34;;;;;;;2.00;1.50;;;;;;;25.86;38.34;100240.89;102554;279;119353;-55
2023/08/09 11:14:13;;;;;;;4.20;1.40;;;;;;;25.75;38.72;100240.63;102130;280;469049;-56
2023/08/09 11:16:53;;;;;;;1.70;1.30;;;;;;;25.58;38.88;100244.15;102491;269;115021;-57
2023/08/09 11:19:31;;;;;;;2.20;1.60;;;;;;;25.31;38.87;100240.55;102384;279;95168;-56
2023/08/09 11:22:09;;;;;;;2.40;1.20;;;;;;;25.08;38.66;100240.11;102511;279;96889;-56
2023/08/09 11:24:46;;;;;;;3.70;1.40;;;;;;;24.81;38.87;100236.26;102478;279;121028;-55
2023/08/09 11:27:23;;;;;;;2.30;1.00;;;;;;;24.74;39.06;100235.85;102478;279;105602;-56
2023/08/09 11:30:05;;;;;;;2.50;1.20;;;;;;;24.82;39.24;100233.56;102436;279;115050;-55
2023/08/09 11:32:43;;;;;;;4.00;1.60;;;;;;;24.84;39.31;100232.55;102486;279;94484;-55
2023/08/09 11:35:28;;;;;;;1.90;1.10;;;;;;;24.68;39.23;100233.80;102495;279;97219;-55
2023/08/09 11:38:09;;;;;;;2.40;1.40;;;;;;;24.52;39.11;100226.27;102539;279;120337;-56
2023/08/09 11:40:58;;;;;;;1.80;1.10;;;;;;;24.47;39.31;100225.47;102503;278;105622;-55
2023/08/09 11:43:39;;;;;;;2.30;1.60;;;;;;;24.30;39.62;100227.16;102522;278;114852;-56
2023/08/09 11:46:13;;;;;;;1.90;1.30;;;;;;;24.08;40.02;100227.85;102566;279;92967;-57
2023/08/09 11:48:51;;;;;;;2.50;1.20;;;;;;;23.94;40.35;100226.55;102548;278;97522;-56
2023/08/09 11:51:32;;;;;;;2.00;1.30;;;;;;;23.97;40.42;100222.30;102543;278;120224;-57
2023/08/09 11:54:10;;;;;;;2.90;1.50;;;;;;;23.96;40.44;100224.57;102573;279;105365;-56
2023/08/09 11:56:49;;;;;;;4.10;1.30;;;;;;;24.06;40.91;100225.70;102563;278;115483;-56
2023/08/09 11:59:28;;;;;;;1.80;1.30;;;;;;;24.16;41.20;100227.99;102529;278;93107;-56
2023/08/09 12:02:13;;;;;;;3.10;1.50;;;;;;;24.20;41.29;100229.20;102654;279;96331;-58
2023/08/09 12:04:51;;;;;;;2.00;1.50;;;;;;;24.22;41.20;100234.59;102696;279;121053;-57
2023/08/09 12:07:35;;;;;;;3.50;1.50;;;;;;;24.08;40.91;100236.52;102586;278;105093;-58
2023/08/09 12:10:20;;;;;;;2.80;1.30;;;;;;;23.96;41.02;100235.39;102563;278;115256;-58
2023/08/09 12:13:05;;;;;;;3.00;1.40;;;;;;;23.73;41.06;100243.52;102544;278;92859;-54
2023/08/09 12:15:47;;;;;;;2.60;1.40;;;;;;;23.50;40.94;100245.59;102534;278;97179;-53
2023/08/09 12:18:27;;;;;;;3.90;1.40;;;;;;;23.24;41.29;100244.25;102584;278;119932;-58